Time;durP1;ratioP1;P1;durP2;ratioP2;P2;SDS_P1;SDS_P2;PMS_P1;PMS_P2;Temp;Humidity;BMP_temperature;BMP_pressure;BME280_temperature;BME280_humidity;BME280_pressure;Samples;Min_cycle;Max_cycle;Signal;HPM_P1;HPM_P2
2021/03/02 00:01:47;;;;;;;27.45;6.22;;;;;;;2.97;86.31;102041.41;5063169;28;20025;-68
2021/03/02 00:04:12;;;;;;;32.10;7.07;;;;;;;2.99;85.93;102035.50;5063077;28;20021;-67
2021/03/02 00:06:38;;;;;;;33.38;6.20;;;;;;;2.91;86.13;102025.72;5063281;28;20366;-67
2021/03/02 00:09:04;;;;;;;28.38;6.32;;;;;;;2.90;86.07;102028.22;5063118;28;20377;-66
2021/03/02 00:11:29;;;;;;;41.28;6.72;;;;;;;2.89;86.00;102035.03;5063228;28;20021;-67
2021/03/02 00:13:55;;;;;;;37.42;6.18;;;;;;;2.87;86.00;102034.09;5045039;28;20033;-67
2021/03/02 00:16:27;;;;;;;33.05;6.20;;;;;;;2.84;86.04;102037.34;5063486;28;20043;-68
2021/03/02 00:19:08;;;;;;;37.72;7.78;;;;;;;2.85;85.80;102040.81;5063064;28;20089;-66
2021/03/02 00:21:39;;;;;;;30.40;5.22;;;;;;;2.85;85.85;102038.25;5063169;28;20025;-67
2021/03/02 00:24:11;;;;;;;38.07;6.67;;;;;;;2.87;85.58;102041.78;5063417;28;20056;-67
2021/03/02 00:26:42;;;;;;;29.70;5.78;;;;;;;2.87;85.62;102034.09;5063105;28;20250;-69
2021/03/02 00:29:08;;;;;;;32.45;7.05;;;;;;;2.88;85.72;102037.50;5062773;28;20056;-68
2021/03/02 00:31:34;;;;;;;32.20;4.72;;;;;;;2.87;85.91;102044.34;5062920;28;20051;-68
2021/03/02 00:34:00;;;;;;;26.67;5.22;;;;;;;2.88;85.87;102035.84;5062945;28;20091;-67
2021/03/02 00:36:25;;;;;;;30.60;5.38;;;;;;;2.87;86.06;102034.09;5063035;28;20024;-67
2021/03/02 00:38:51;;;;;;;27.70;5.32;;;;;;;2.86;86.33;102032.31;5062753;28;20032;-66
2021/03/02 00:41:16;;;;;;;24.33;5.20;;;;;;;2.87;86.16;102041.78;5063143;28;20505;-68
2021/03/02 00:43:41;;;;;;;23.15;5.25;;;;;;;2.86;86.33;102024.59;5062788;28;20074;-67
2021/03/02 00:46:07;;;;;;;28.88;5.35;;;;;;;2.84;86.47;102024.53;5062886;28;20021;-69
2021/03/02 00:48:32;;;;;;;31.40;4.82;;;;;;;2.88;86.40;102028.13;5063821;28;20037;-67
2021/03/02 00:50:59;;;;;;;27.05;5.63;;;;;;;2.89;86.28;102021.34;5066608;28;20581;-67
2021/03/02 00:53:26;;;;;;;27.70;4.97;;;;;;;2.91;86.35;102024.84;5066572;28;20069;-67
2021/03/02 00:55:55;;;;;;;18.63;4.95;;;;;;;2.88;86.48;102010.19;5066644;28;20029;-68
2021/03/02 00:58:20;;;;;;;22.45;5.30;;;;;;;2.88;86.62;102005.03;5066227;28;20291;-68
2021/03/02 01:00:45;;;;;;;24.73;4.20;;;;;;;2.92;86.51;101989.03;5066327;28;20044;-67
2021/03/02 01:03:11;;;;;;;36.42;4.70;;;;;;;2.91;86.55;101994.94;5066346;28;20029;-67
2021/03/02 01:05:36;;;;;;;31.33;6.97;;;;;;;2.97;86.38;101995.22;5066374;28;20024;-66
2021/03/02 01:08:04;;;;;;;24.42;4.65;;;;;;;3.01;86.39;102005.66;5066274;28;20084;-67
2021/03/02 01:10:29;;;;;;;26.63;5.30;;;;;;;2.97;86.54;101999.50;5066174;28;20025;-66
2021/03/02 01:12:54;;;;;;;31.48;6.07;;;;;;;3.01;86.51;101996.28;5047917;28;20080;-67
2021/03/02 01:15:20;;;;;;;31.80;6.15;;;;;;;3.00;86.69;101986.81;5066308;28;20029;-68
2021/03/02 01:17:45;;;;;;;30.27;5.15;;;;;;;2.99;86.73;101979.91;5066121;28;20371;-67
2021/03/02 01:20:11;;;;;;;30.35;5.05;;;;;;;3.02;86.92;101990.31;5065848;28;20537;-67
2021/03/02 01:22:36;;;;;;;37.85;5.63;;;;;;;3.04;86.79;101983.59;5066129;28;20047;-67
2021/03/02 01:25:02;;;;;;;34.03;5.75;;;;;;;3.14;86.61;101990.06;5066145;28;20108;-67
2021/03/02 01:27:27;;;;;;;30.90;4.85;;;;;;;3.16;86.57;101988.44;5065664;28;20389;-67
2021/03/02 01:29:53;;;;;;;24.27;4.90;;;;;;;3.19;86.73;101990.28;5065837;28;20025;-67
2021/03/02 01:32:18;;;;;;;34.20;5.78;;;;;;;3.25;86.68;101997.38;5065721;28;20047;-66
2021/03/02 01:34:44;;;;;;;38.35;7.30;;;;;;;3.25;86.69;101994.81;5065928;28;20055;-67
2021/03/02 01:37:09;;;;;;;36.53;6.28;;;;;;;3.27;86.66;101999.22;5065982;28;20021;-67
2021/03/02 01:39:34;;;;;;;57.38;10.35;;;;;;;3.32;86.52;101999.44;5064989;28;20123;-67
2021/03/02 01:42:00;;;;;;;19.95;5.85;;;;;;;3.34;86.54;101995.22;5064952;28;20017;-66
2021/03/02 01:44:28;;;;;;;27.80;6.05;;;;;;;3.40;86.48;101990.41;5065336;28;20115;-67
2021/03/02 01:46:54;;;;;;;39.42;6.97;;;;;;;3.38;86.37;101992.03;5065602;28;20021;-67
2021/03/02 01:49:21;;;;;;;30.85;5.78;;;;;;;3.34;86.26;101993.56;5065417;28;20025;-67
2021/03/02 01:51:47;;;;;;;37.40;6.50;;;;;;;3.35;86.23;101999.56;5065574;28;20059;-67
2021/03/02 01:54:13;;;;;;;29.63;6.93;;;;;;;3.33;86.29;101996.06;5065372;28;20032;-67
2021/03/02 01:56:39;;;;;;;39.72;6.35;;;;;;;3.31;86.26;101980.56;5065457;28;20021;-68
2021/03/02 01:59:05;;;;;;;39.22;6.78;;;;;;;3.30;86.31;101988.19;5064674;28;20043;-66
2021/03/02 02:01:31;;;;;;;29.60;5.82;;;;;;;3.28;86.35;101990.69;5065241;28;20051;-66
2021/03/02 02:04:23;;;;;;;37.05;6.93;;;;;;;3.33;86.37;101996.06;5065118;28;20024;-65
2021/03/02 02:06:54;;;;;;;43.15;8.75;;;;;;;3.39;85.97;102001.47;5065258;28;20047;-67
2021/03/02 02:09:45;;;;;;;42.58;8.52;;;;;;;3.37;86.10;102015.91;5065097;28;20029;-67
2021/03/02 02:12:24;;;;;;;47.90;7.18;;;;;;;3.31;86.03;102018.19;5064889;28;20096;-66
2021/03/02 02:14:58;;;;;;;38.63;7.68;;;;;;;3.38;85.83;102017.69;5065221;28;20033;-67
2021/03/02 02:17:55;;;;;;;45.58;7.00;;;;;;;3.35;85.83;102025.25;5065118;28;20082;-67
2021/03/02 02:20:58;;;;;;;38.67;9.25;;;;;;;3.32;85.62;102023.41;5064817;28;20041;-67
2021/03/02 02:23:51;;;;;;;42.22;8.75;;;;;;;3.27;85.44;102019.75;5064888;28;20029;-67
2021/03/02 02:26:46;;;;;;;34.03;7.95;;;;;;;3.19;85.55;102027.09;5063070;28;20041;-67
2021/03/02 02:29:15;;;;;;;60.00;10.02;;;;;;;3.13;85.39;102025.91;5064431;28;20025;-66
2021/03/02 02:31:43;;;;;;;51.92;7.72;;;;;;;3.09;85.55;102035.13;5064846;28;20028;-67
2021/03/02 02:34:15;;;;;;;39.30;7.07;;;;;;;3.01;85.41;102036.44;5064692;28;20021;-67
2021/03/02 02:36:41;;;;;;;37.03;7.47;;;;;;;2.95;85.56;102026.75;5064794;28;20021;-67
2021/03/02 02:39:07;;;;;;;46.08;9.63;;;;;;;2.87;85.58;102022.94;5064228;28;20056;-66
2021/03/02 02:41:33;;;;;;;43.00;7.75;;;;;;;2.82;85.75;102026.16;5064459;28;20025;-67
2021/03/02 02:44:00;;;;;;;48.53;7.05;;;;;;;2.78;86.07;102029.34;5064313;28;20035;-67
2021/03/02 02:46:29;;;;;;;40.88;7.55;;;;;;;2.74;86.21;102030.03;5064501;28;20017;-67
2021/03/02 02:48:57;;;;;;;35.60;7.13;;;;;;;2.72;86.34;102024.81;5064302;28;20032;-66
2021/03/02 02:51:23;;;;;;;35.80;6.35;;;;;;;2.70;86.46;102026.41;5064307;28;20029;-67
2021/03/02 02:53:49;;;;;;;40.15;6.18;;;;;;;2.68;86.61;102012.66;5064449;28;20392;-67
2021/03/02 02:56:17;;;;;;;40.13;8.50;;;;;;;2.67;86.82;102018.56;5064381;28;20025;-67
2021/03/02 02:59:07;;;;;;;42.03;7.65;;;;;;;2.72;86.69;102029.06;5064003;28;20028;-67
2021/03/02 03:01:42;;;;;;;28.35;7.47;;;;;;;2.70;86.26;102021.28;5064216;28;20405;-68
2021/03/02 03:04:11;;;;;;;36.67;6.20;;;;;;;2.69;86.43;102026.34;5064167;28;20080;-67
2021/03/02 03:06:42;;;;;;;36.35;7.13;;;;;;;2.68;86.52;102019.47;5064138;28;20500;-67
2021/03/02 03:09:07;;;;;;;36.13;6.30;;;;;;;2.69;86.51;102024.66;5064126;28;20469;-67
2021/03/02 03:11:40;;;;;;;41.70;7.40;;;;;;;2.67;86.54;102021.13;5063534;28;20032;-67
2021/03/02 03:14:10;;;;;;;36.17;6.65;;;;;;;2.69;86.32;102018.63;5059942;28;20096;-67
2021/03/02 03:16:39;;;;;;;34.60;7.13;;;;;;;2.68;86.53;102022.03;5064281;28;20052;-67
2021/03/02 03:19:07;;;;;;;29.27;5.75;;;;;;;2.72;86.38;102012.00;5063631;28;20031;-67
2021/03/02 03:21:34;;;;;;;35.55;7.68;;;;;;;2.76;86.33;102019.84;5063987;28;20223;-66
2021/03/02 03:24:02;;;;;;;38.35;6.40;;;;;;;2.78;86.25;102024.22;5062605;28;20100;-67
2021/03/02 03:26:32;;;;;;;37.92;7.28;;;;;;;2.71;86.17;102017.94;5063993;28;20033;-68
2021/03/02 03:28:59;;;;;;;36.35;6.70;;;;;;;2.70;86.07;102023.84;5063405;28;20051;-67
2021/03/02 03:31:25;;;;;;;33.33;6.95;;;;;;;2.66;86.03;102028.75;5063733;28;20043;-67
2021/03/02 03:33:52;;;;;;;41.38;8.40;;;;;;;2.71;85.91;102035.88;5063834;28;20358;-67
2021/03/02 03:36:19;;;;;;;32.28;6.40;;;;;;;2.69;85.86;102031.47;5063712;28;20048;-66
2021/03/02 03:38:45;;;;;;;26.65;6.57;;;;;;;2.65;85.97;102020.16;5063912;28;20026;-66
2021/03/02 03:41:11;;;;;;;27.48;6.20;;;;;;;2.66;85.89;102024.50;5063510;28;20048;-66
2021/03/02 03:43:37;;;;;;;27.15;6.72;;;;;;;2.61;86.01;102036.22;5063232;28;20040;-66
2021/03/02 03:46:02;;;;;;;28.67;6.47;;;;;;;2.62;85.83;102037.09;5063569;28;20013;-67
2021/03/02 03:48:28;;;;;;;30.15;6.93;;;;;;;2.65;85.88;102042.38;5063559;28;20444;-67
2021/03/02 03:50:53;;;;;;;38.65;6.78;;;;;;;2.66;85.80;102033.88;5063470;28;20045;-66
2021/03/02 03:53:20;;;;;;;31.48;7.22;;;;;;;2.63;85.78;102032.03;5063641;28;20378;-67
2021/03/02 03:55:47;;;;;;;35.38;7.72;;;;;;;2.64;85.56;102041.50;5062388;28;20102;-66
2021/03/02 03:58:24;;;;;;;29.83;6.47;;;;;;;2.59;85.48;102038.69;5061813;28;20112;-66
2021/03/02 04:00:51;;;;;;;29.35;7.32;;;;;;;2.60;85.33;102042.16;5063237;28;20025;-67
2021/03/02 04:03:20;;;;;;;36.63;7.25;;;;;;;2.55;85.07;102049.59;5063490;28;20058;-67
2021/03/02 04:05:47;;;;;;;32.85;7.35;;;;;;;2.51;85.06;102042.53;5063702;28;20017;-66
2021/03/02 04:08:14;;;;;;;39.75;7.50;;;;;;;2.45;85.03;102047.34;5063205;28;20021;-68
2021/03/02 04:10:41;;;;;;;44.10;8.43;;;;;;;2.40;85.04;102038.53;5063202;28;20563;-66
2021/03/02 04:13:15;;;;;;;34.65;7.43;;;;;;;2.32;85.21;102046.72;5063094;28;20022;-66
2021/03/02 04:15:42;;;;;;;40.47;7.63;;;;;;;2.31;84.95;102039.84;5062091;28;20046;-65
2021/03/02 04:18:15;;;;;;;33.25;7.72;;;;;;;2.29;84.76;102038.88;5063308;28;20060;-66
2021/03/02 04:20:42;;;;;;;41.20;7.68;;;;;;;2.28;84.77;102038.81;5063189;28;20052;-66
2021/03/02 04:23:08;;;;;;;41.25;7.55;;;;;;;2.27;84.49;102037.03;5065244;28;20051;-66
2021/03/02 04:25:34;;;;;;;37.03;8.45;;;;;;;2.26;84.38;102042.94;5065775;28;20032;-66
2021/03/02 04:28:00;;;;;;;32.80;8.15;;;;;;;2.25;84.32;102051.44;5067042;28;20025;-66
2021/03/02 04:30:26;;;;;;;27.05;7.93;;;;;;;2.24;84.15;102055.69;5066947;28;20021;-66
2021/03/02 04:32:52;;;;;;;46.25;8.27;;;;;;;2.21;84.42;102053.84;5067201;28;20032;-67
2021/03/02 04:35:18;;;;;;;43.92;7.57;;;;;;;2.23;84.29;102059.94;5067139;28;20068;-67
2021/03/02 04:37:43;;;;;;;44.40;8.32;;;;;;;2.21;84.28;102052.97;5066954;28;20048;-66
2021/03/02 04:40:10;;;;;;;39.95;10.07;;;;;;;2.19;84.28;102060.56;5066575;28;20041;-66
2021/03/02 04:42:35;;;;;;;33.92;7.65;;;;;;;2.16;84.32;102064.66;5066731;28;20159;-66
2021/03/02 04:45:01;;;;;;;35.03;8.27;;;;;;;2.08;84.65;102054.88;5066830;28;20025;-67
2021/03/02 04:47:26;;;;;;;33.47;6.47;;;;;;;2.02;85.15;102054.56;5066855;28;20112;-66
2021/03/02 04:49:51;;;;;;;40.75;6.97;;;;;;;2.04;85.70;102057.19;5066588;28;20021;-65
2021/03/02 04:52:17;;;;;;;30.98;6.43;;;;;;;2.06;86.19;102051.34;5066644;28;20017;-66
2021/03/02 04:54:44;;;;;;;42.15;7.55;;;;;;;2.08;86.24;102059.13;5065150;28;20029;-68
2021/03/02 04:57:09;;;;;;;36.95;7.55;;;;;;;2.08;86.18;102061.69;5065145;28;20131;-68
2021/03/02 04:59:35;;;;;;;40.88;9.02;;;;;;;2.09;86.43;102063.47;5066138;28;20521;-68
2021/03/02 05:02:00;;;;;;;29.45;9.65;;;;;;;2.04;86.42;102052.97;5066514;28;20024;-68
2021/03/02 05:04:25;;;;;;;29.58;7.03;;;;;;;2.07;86.17;102062.50;5066607;28;20052;-67
2021/03/02 05:06:51;;;;;;;33.25;7.10;;;;;;;2.05;86.00;102061.50;5066587;28;20021;-67
2021/03/02 05:09:16;;;;;;;32.22;7.05;;;;;;;2.06;85.71;102058.19;5066451;28;20056;-67
2021/03/02 05:11:41;;;;;;;34.03;7.10;;;;;;;2.08;85.57;102060.00;5066226;28;20025;-67
2021/03/02 05:14:07;;;;;;;44.22;6.78;;;;;;;2.04;85.48;102057.19;5064752;28;20036;-68
2021/03/02 05:16:32;;;;;;;37.28;6.78;;;;;;;1.98;86.05;102068.88;5064844;28;20032;-68
2021/03/02 05:18:58;;;;;;;38.53;7.00;;;;;;;2.00;86.04;102080.91;5065007;28;20032;-66
2021/03/02 05:21:23;;;;;;;32.72;6.93;;;;;;;1.99;85.87;102074.88;5066449;28;20064;-67
2021/03/02 05:23:49;;;;;;;35.45;6.72;;;;;;;1.91;85.95;102069.34;5066185;28;20029;-66
2021/03/02 05:26:14;;;;;;;25.02;7.20;;;;;;;1.95;86.21;102076.41;5066061;28;20525;-71
2021/03/02 05:28:39;;;;;;;33.97;6.68;;;;;;;1.93;86.28;102069.44;5064281;28;20025;-67
2021/03/02 05:31:05;;;;;;;37.95;6.63;;;;;;;1.94;86.28;102073.75;5065929;28;20057;-67
2021/03/02 05:33:30;;;;;;;33.45;6.43;;;;;;;1.88;86.46;102068.28;5065740;28;20021;-67
2021/03/02 05:35:55;;;;;;;37.22;7.32;;;;;;;1.92;86.96;102073.66;5065230;28;20039;-68
2021/03/02 05:38:21;;;;;;;27.42;7.18;;;;;;;1.97;86.99;102077.38;5065652;28;20025;-69
2021/03/02 05:40:47;;;;;;;28.25;6.80;;;;;;;1.98;87.04;102074.00;5064574;28;20063;-67
2021/03/02 05:43:12;;;;;;;35.03;6.95;;;;;;;2.03;86.84;102086.19;5063456;28;20458;-68
2021/03/02 05:45:37;;;;;;;28.58;6.68;;;;;;;2.07;86.91;102085.53;5064211;28;20350;-67
2021/03/02 05:48:10;;;;;;;36.58;7.28;;;;;;;2.06;86.81;102081.22;5065647;28;20138;-68
2021/03/02 05:50:35;;;;;;;37.53;8.38;;;;;;;2.05;86.60;102085.47;5065524;28;20117;-67
2021/03/02 05:53:02;;;;;;;42.05;6.90;;;;;;;2.06;86.55;102076.09;5065472;28;20515;-67
2021/03/02 05:55:33;;;;;;;30.92;7.28;;;;;;;2.00;86.53;102075.78;5065616;28;20100;-68
2021/03/02 05:57:59;;;;;;;42.20;6.65;;;;;;;2.01;86.55;102077.53;5065404;28;20025;-68
2021/03/02 06:00:25;;;;;;;29.77;6.32;;;;;;;1.97;86.67;102071.34;5065240;28;20139;-68
2021/03/02 06:02:50;;;;;;;30.77;6.85;;;;;;;1.95;86.75;102078.94;5065516;28;20075;-67
2021/03/02 06:05:16;;;;;;;26.83;6.53;;;;;;;1.99;87.05;102080.00;5065443;28;20021;-67
2021/03/02 06:07:41;;;;;;;36.75;8.95;;;;;;;1.97;86.99;102081.59;5065365;28;20075;-67
2021/03/02 06:10:07;;;;;;;41.13;6.55;;;;;;;1.98;86.89;102083.38;5064974;28;20044;-66
2021/03/02 06:12:52;;;;;;;43.22;9.73;;;;;;;1.99;87.05;102082.56;5064939;28;20025;-67
2021/03/02 06:15:19;;;;;;;29.25;7.93;;;;;;;1.98;86.94;102079.13;5065442;28;20032;-68
2021/03/02 06:17:45;;;;;;;44.70;10.32;;;;;;;2.04;86.95;102090.50;5065009;28;20029;-68
2021/03/02 06:20:21;;;;;;;40.38;9.75;;;;;;;2.05;86.64;102089.69;5064711;28;20020;-67
2021/03/02 06:22:47;;;;;;;34.63;8.25;;;;;;;2.05;86.56;102089.69;5065109;28;20017;-68
2021/03/02 06:25:33;;;;;;;51.28;10.18;;;;;;;2.04;86.65;102091.41;5064855;28;20102;-66
2021/03/02 06:27:59;;;;;;;48.45;9.05;;;;;;;2.05;86.60;102099.94;5064540;28;20100;-66
2021/03/02 06:30:25;;;;;;;37.65;10.82;;;;;;;2.02;86.49;102093.00;5064548;28;20027;-68
2021/03/02 06:32:53;;;;;;;50.28;9.27;;;;;;;2.05;86.76;102099.94;5058538;28;20047;-66
2021/03/02 06:35:35;;;;;;;55.35;10.55;;;;;;;2.10;86.68;102098.53;5064549;28;20138;-67
2021/03/02 06:38:02;;;;;;;31.65;8.93;;;;;;;2.18;86.58;102094.69;5064824;28;20516;-67
2021/03/02 06:40:48;;;;;;;42.97;9.75;;;;;;;2.19;86.56;102100.72;5064176;28;20055;-67
2021/03/02 06:43:38;;;;;;;51.90;9.02;;;;;;;2.27;86.61;102093.44;5062685;28;20032;-65
2021/03/02 06:46:06;;;;;;;41.03;8.73;;;;;;;2.39;86.62;102104.34;5063569;28;20304;-67
2021/03/02 06:48:33;;;;;;;44.65;9.63;;;;;;;2.49;86.75;102103.13;5064292;28;20021;-66
2021/03/02 06:50:59;;;;;;;32.30;8.23;;;;;;;2.62;86.84;102106.34;5063880;28;20114;-69
2021/03/02 06:53:25;;;;;;;33.60;8.18;;;;;;;2.83;86.66;102112.56;5064082;28;20111;-66
2021/03/02 06:55:51;;;;;;;37.95;9.30;;;;;;;3.08;86.92;102100.09;5064156;28;20059;-67
2021/03/02 06:58:21;;;;;;;29.35;7.65;;;;;;;3.51;87.05;102100.44;5063743;28;20025;-67
2021/03/02 07:00:55;;;;;;;20.75;7.80;;;;;;;3.96;87.18;102108.56;5063811;28;20047;-67
2021/03/02 07:03:24;;;;;;;16.88;5.63;;;;;;;4.36;87.04;102115.47;5064132;28;20045;-67
2021/03/02 07:05:50;;;;;;;24.67;5.50;;;;;;;4.82;86.54;102114.91;5063950;28;20028;-65
2021/03/02 07:08:15;;;;;;;19.05;5.85;;;;;;;5.36;86.43;102120.56;5063999;28;20072;-66
2021/03/02 07:10:42;;;;;;;14.80;4.32;;;;;;;5.98;86.53;102121.22;5063885;28;20028;-66
2021/03/02 07:13:10;;;;;;;18.10;4.85;;;;;;;6.54;86.46;102121.63;5059805;28;20020;-66
2021/03/02 07:15:39;;;;;;;23.45;4.55;;;;;;;7.17;86.00;102121.19;5064067;28;20033;-66
2021/03/02 07:18:06;;;;;;;19.08;4.78;;;;;;;7.78;85.14;102131.72;5063901;28;20056;-66
2021/03/02 07:20:33;;;;;;;17.80;4.32;;;;;;;8.27;83.39;102134.06;5063840;28;20029;-66
2021/03/02 07:23:01;;;;;;;17.25;5.40;;;;;;;8.66;83.13;102129.09;5064045;28;20085;-67
2021/03/02 07:25:29;;;;;;;15.38;5.05;;;;;;;8.95;81.48;102143.66;5063832;28;20484;-66
2021/03/02 07:27:58;;;;;;;8.45;3.45;;;;;;;9.51;81.05;102145.94;5063698;28;20059;-66
2021/03/02 07:30:24;;;;;;;14.73;4.05;;;;;;;10.12;81.02;102144.72;5063570;28;20063;-67
2021/03/02 07:32:50;;;;;;;15.32;3.65;;;;;;;10.56;81.07;102148.22;5063187;28;20025;-66
2021/03/02 07:35:18;;;;;;;12.30;4.05;;;;;;;10.72;79.92;102156.31;5063592;28;20135;-67
2021/03/02 07:37:43;;;;;;;18.23;5.03;;;;;;;10.85;79.35;102155.69;5063689;28;20100;-66
2021/03/02 07:40:10;;;;;;;16.00;5.18;;;;;;;11.33;79.81;102144.38;5063497;28;20036;-66
2021/03/02 07:42:37;;;;;;;12.55;3.40;;;;;;;11.34;78.08;102149.59;5063329;28;20025;-66
2021/03/02 07:45:15;;;;;;;11.88;2.95;;;;;;;11.66;77.74;102156.19;5063697;28;20036;-68
2021/03/02 07:47:42;;;;;;;8.32;3.10;;;;;;;11.63;75.22;102154.41;5063726;28;20029;-68
2021/03/02 07:50:24;;;;;;;11.32;3.05;;;;;;;11.36;74.44;102167.81;5063401;28;20049;-67
2021/03/02 07:53:24;;;;;;;11.77;3.47;;;;;;;11.14;75.67;102176.16;5063673;28;20497;-68
2021/03/02 07:56:21;;;;;;;7.85;3.80;;;;;;;10.96;74.79;102184.47;5063522;28;20029;-67
2021/03/02 07:59:05;;;;;;;13.27;3.47;;;;;;;10.93;75.01;102187.00;5068677;28;20025;-67
2021/03/02 08:01:31;;;;;;;16.65;4.85;;;;;;;10.63;70.59;102185.56;5069988;28;20028;-67
2021/03/02 08:04:15;;;;;;;18.50;5.05;;;;;;;9.90;69.37;102192.66;5068775;28;20074;-68
2021/03/02 08:06:52;;;;;;;13.63;5.03;;;;;;;9.28;69.71;102189.44;5070049;28;20036;-71
2021/03/02 08:09:30;;;;;;;21.80;6.10;;;;;;;8.80;69.69;102194.22;5069973;28;20016;-67
2021/03/02 08:12:27;;;;;;;30.15;6.00;;;;;;;8.28;70.33;102197.91;5068508;28;20028;-70
2021/03/02 08:14:52;;;;;;;19.95;5.28;;;;;;;7.96;70.85;102182.25;5061290;28;20529;-70
2021/03/02 08:17:20;;;;;;;30.08;5.47;;;;;;;7.82;70.80;102194.75;5070012;28;20088;-70
2021/03/02 08:19:49;;;;;;;13.48;4.97;;;;;;;7.64;72.09;102205.38;5070028;28;20021;-70
2021/03/02 08:22:23;;;;;;;27.10;5.20;;;;;;;7.65;71.46;102210.59;5069971;28;20017;-70
2021/03/02 08:24:58;;;;;;;15.27;5.28;;;;;;;7.60;71.55;102204.41;5069817;28;20483;-67
2021/03/02 08:27:37;;;;;;;18.15;4.68;;;;;;;7.71;71.68;102211.63;5069774;28;20354;-68
2021/03/02 08:30:08;;;;;;;18.02;4.72;;;;;;;7.92;71.67;102214.03;5069584;28;20051;-67
2021/03/02 08:32:34;;;;;;;15.43;4.65;;;;;;;8.18;71.24;102204.50;5069783;28;20358;-68
2021/03/02 08:35:04;;;;;;;18.83;4.97;;;;;;;8.40;70.88;102204.28;5069805;28;20059;-68
2021/03/02 08:37:43;;;;;;;19.88;5.13;;;;;;;8.70;70.93;102212.91;5069912;28;20036;-68
2021/03/02 08:40:11;;;;;;;18.08;5.38;;;;;;;9.08;70.68;102212.22;5069445;28;20343;-69
2021/03/02 08:42:37;;;;;;;13.80;4.03;;;;;;;9.47;70.77;102210.66;5069840;28;20408;-67
2021/03/02 08:45:06;;;;;;;15.20;4.47;;;;;;;9.91;69.27;102207.38;5069391;28;20100;-69
2021/03/02 08:47:33;;;;;;;15.05;3.95;;;;;;;10.22;68.56;102213.28;5067340;28;20036;-69
2021/03/02 08:49:58;;;;;;;13.95;4.53;;;;;;;10.69;67.73;102221.22;5069437;28;20288;-69
2021/03/02 08:52:43;;;;;;;15.75;4.07;;;;;;;11.02;66.73;102222.72;5069669;28;20025;-69
2021/03/02 08:55:09;;;;;;;14.20;5.18;;;;;;;11.22;65.10;102227.41;5069786;28;20025;-68
2021/03/02 08:57:47;;;;;;;17.88;5.07;;;;;;;11.36;64.99;102223.31;5069447;28;20025;-66
2021/03/02 09:00:16;;;;;;;14.93;4.68;;;;;;;11.52;63.74;102227.06;5069508;28;20100;-68
2021/03/02 09:02:45;;;;;;;12.93;4.22;;;;;;;11.64;62.05;102217.72;5069643;28;20242;-68
2021/03/02 09:05:17;;;;;;;15.80;4.25;;;;;;;11.80;61.94;102233.56;5069512;28;20025;-68
2021/03/02 09:08:05;;;;;;;14.98;5.70;;;;;;;11.48;61.17;102232.19;5069539;28;20039;-69
2021/03/02 09:10:30;;;;;;;32.03;6.28;;;;;;;10.95;59.95;102239.03;5065664;28;20020;-69
2021/03/02 09:12:56;;;;;;;38.65;7.30;;;;;;;10.18;59.01;102245.19;5066118;28;20071;-68
2021/03/02 09:15:36;;;;;;;28.38;6.45;;;;;;;9.27;60.25;102243.00;5065152;28;20125;-69
2021/03/02 09:18:17;;;;;;;52.50;7.63;;;;;;;8.31;61.34;102244.56;5066219;28;20032;-68
2021/03/02 09:20:56;;;;;;;59.60;8.65;;;;;;;7.57;63.36;102251.69;5064585;28;20055;-68
2021/03/02 09:23:22;;;;;;;24.38;6.07;;;;;;;7.09;64.17;102255.22;5066391;28;20061;-68
2021/03/02 09:25:51;;;;;;;15.27;6.82;;;;;;;6.68;65.87;102248.59;5066126;28;20017;-69
2021/03/02 09:28:19;;;;;;;13.80;6.70;;;;;;;6.55;67.02;102259.28;5065809;28;20029;-69
2021/03/02 09:30:45;;;;;;;16.02;7.32;;;;;;;6.40;67.49;102255.28;5064504;28;20131;-68
2021/03/02 09:33:14;;;;;;;21.80;6.82;;;;;;;6.50;68.37;102261.66;5065972;28;20021;-68
2021/03/02 09:35:43;;;;;;;14.85;6.32;;;;;;;6.73;68.66;102258.19;5065962;28;20025;-68
2021/03/02 09:38:26;;;;;;;13.68;6.22;;;;;;;6.90;68.09;102259.69;5065873;28;20021;-68
2021/03/02 09:40:51;;;;;;;23.45;6.65;;;;;;;6.88;67.38;102261.38;5046482;28;20049;-68
2021/03/02 09:43:16;;;;;;;14.38;7.07;;;;;;;6.59;67.62;102255.09;5045200;28;20144;-68
2021/03/02 09:45:53;;;;;;;22.25;7.57;;;;;;;6.37;68.81;102246.53;5045819;28;20112;-69
2021/03/02 09:48:19;;;;;;;13.88;5.60;;;;;;;6.50;69.42;102258.22;5045752;28;20025;-68
2021/03/02 09:50:44;;;;;;;15.93;5.97;;;;;;;6.66;69.86;102255.38;5045495;28;20444;-68
2021/03/02 09:53:12;;;;;;;19.92;6.22;;;;;;;6.97;69.69;102265.09;5045459;28;20026;-67
2021/03/02 09:55:37;;;;;;;18.90;6.60;;;;;;;7.25;69.16;102271.28;5045807;28;20044;-68
2021/03/02 09:58:12;;;;;;;18.60;5.63;;;;;;;7.66;69.34;102265.78;5045269;28;20040;-67
2021/03/02 10:00:59;;;;;;;12.52;4.55;;;;;;;8.10;68.49;102268.06;5027332;28;20029;-68
2021/03/02 10:03:26;;;;;;;10.30;5.35;;;;;;;8.36;67.44;102261.94;5045550;28;20025;-67
2021/03/02 10:05:51;;;;;;;16.50;6.68;;;;;;;8.33;66.24;102267.91;5045422;28;20481;-68
2021/03/02 10:08:16;;;;;;;17.70;6.43;;;;;;;7.98;65.23;102258.22;5045445;28;20039;-67
2021/03/02 10:10:42;;;;;;;19.73;7.13;;;;;;;7.69;66.35;102261.59;5045190;28;20055;-67
2021/03/02 10:13:08;;;;;;;15.18;6.15;;;;;;;7.79;67.24;102260.19;5045009;28;20021;-66
2021/03/02 10:15:33;;;;;;;18.88;5.47;;;;;;;8.35;67.75;102249.84;5045303;28;20104;-68
2021/03/02 10:18:21;;;;;;;16.92;5.22;;;;;;;9.48;66.70;102246.09;5045155;28;20021;-67
2021/03/02 10:21:05;;;;;;;17.83;5.53;;;;;;;10.79;63.19;102251.72;5044848;28;20118;-68
2021/03/02 10:23:31;;;;;;;15.38;4.80;;;;;;;11.52;61.09;102250.47;5037697;28;20089;-68
2021/03/02 10:25:59;;;;;;;16.00;4.97;;;;;;;11.49;59.00;102252.13;5044994;28;20108;-68
2021/03/02 10:28:29;;;;;;;18.25;4.40;;;;;;;10.86;59.59;102250.97;5044640;28;20026;-68
2021/03/02 10:30:54;;;;;;;18.65;5.72;;;;;;;10.41;60.69;102243.09;5044691;28;20025;-68
2021/03/02 10:33:20;;;;;;;14.63;5.15;;;;;;;10.11;61.90;102254.53;5044562;28;20143;-68
2021/03/02 10:35:45;;;;;;;22.52;7.05;;;;;;;9.88;62.44;102251.41;5044875;28;20374;-68
2021/03/02 10:38:10;;;;;;;20.35;6.70;;;;;;;9.73;62.95;102259.69;5044661;28;20021;-67
2021/03/02 10:40:36;;;;;;;17.50;5.70;;;;;;;9.48;63.05;102262.53;5057521;28;20049;-68
2021/03/02 10:43:01;;;;;;;13.75;5.28;;;;;;;9.23;63.34;102272.25;5064383;28;20116;-68
2021/03/02 10:45:26;;;;;;;19.00;5.05;;;;;;;9.01;63.96;102275.97;5064545;28;20231;-69
2021/03/02 10:47:52;;;;;;;19.08;5.75;;;;;;;8.84;64.49;102276.34;5064386;28;20032;-68
2021/03/02 10:50:17;;;;;;;13.98;4.38;;;;;;;9.15;64.83;102284.97;5046219;28;20093;-68
2021/03/02 10:52:43;;;;;;;16.83;4.40;;;;;;;10.16;62.85;102278.88;5064508;28;20025;-68
2021/03/02 10:55:09;;;;;;;20.73;3.80;;;;;;;10.57;59.86;102274.66;5064367;28;20025;-68
2021/03/02 10:57:34;;;;;;;21.27;3.80;;;;;;;10.34;59.90;102287.94;5064462;28;20021;-68
2021/03/02 10:59:59;;;;;;;23.67;5.10;;;;;;;10.63;60.04;102279.97;5064091;28;20024;-68
2021/03/02 11:02:24;;;;;;;13.73;3.47;;;;;;;11.53;58.75;102269.56;5046032;28;20079;-68
2021/03/02 11:04:50;;;;;;;18.27;3.58;;;;;;;11.95;56.61;102269.38;5064297;28;20029;-68
2021/03/02 11:07:15;;;;;;;17.98;4.03;;;;;;;12.35;55.98;102266.50;5064258;28;20048;-69
2021/03/02 11:09:41;;;;;;;18.30;4.30;;;;;;;12.58;54.52;102259.03;5063932;28;20512;-68
2021/03/02 11:12:07;;;;;;;17.17;3.90;;;;;;;12.96;54.09;102262.06;5063187;28;20037;-69
2021/03/02 11:14:32;;;;;;;17.80;3.92;;;;;;;13.63;52.01;102268.88;5061897;28;20032;-69
2021/03/02 11:16:57;;;;;;;12.82;3.28;;;;;;;13.77;51.39;102270.72;5060676;28;20036;-69
2021/03/02 11:19:22;;;;;;;15.80;3.55;;;;;;;13.05;51.55;102279.56;5060514;28;20085;-68
2021/03/02 11:21:48;;;;;;;16.52;4.82;;;;;;;12.11;53.30;102275.72;5060087;28;20043;-68
2021/03/02 11:24:13;;;;;;;19.08;4.55;;;;;;;11.21;55.20;102273.34;5059917;28;20464;-68
2021/03/02 11:26:45;;;;;;;19.30;5.05;;;;;;;10.37;56.36;102281.94;5041820;28;20089;-68
2021/03/02 11:29:10;;;;;;;20.20;4.70;;;;;;;9.61;57.78;102284.47;5060764;28;20067;-68
2021/03/02 11:31:38;;;;;;;11.68;4.30;;;;;;;8.91;59.89;102287.78;5063434;28;20032;-68
2021/03/02 11:34:06;;;;;;;15.50;3.85;;;;;;;8.52;61.53;102281.41;5063455;28;20425;-68